LiveATC.Net - Listen to live air traffic control over the Internet!


ICAO: KBIL  IATA: BIL   Airport: Billings Logan International Airport
City: Billings   State/Province: Montana
Country: United States   Continent: North America
KBIL METAR Weather: KBIL 241453Z 23010KT 10SM FEW120 BKN230 01/M07 A2991 RMK AO2 SLP148 T00111072 58003
KBIL Flight Activity (FlightAware)
KBIL Airport Info   (iFlightPlanner)
KBIL VFR Sectional Chart   (iFlightPlanner) 
KBIL IFR Low Chart   (iFlightPlanner) 

ZLC Salt Lake Center (Sector 15)
Feed Status: UP   Listeners: 0
Listen in your browser - HTML5 player (in browser, HTML5)
Click here to listen with your own player (launches your MP3 player)
Archive Access: ZLC Salt Lake Center (Sector 15)
FacilityFrequency
Salt Lake Center (Sector 15 Low/Hi/Ultra Hi)127.750

ICAO: KMSO  IATA: MSO   Airport: Missoula International Airport
City: Missoula   State/Province: Montana
Country: United States   Continent: North America
KMSO METAR Weather: KMSO 241453Z 00000KT 8SM FEW002 OVC060 M01/M02 A2995 RMK AO2 SLP169 I3000 T10111022 56004
KMSO Flight Activity (FlightAware)
KMSO Webcam:  (Airport Webcams) 
KMSO Airport Info   (iFlightPlanner)
KMSO VFR Sectional Chart   (iFlightPlanner) 
KMSO IFR Low Chart   (iFlightPlanner) 

KMSO Gnd/Twr/App/ZLC/ZSE
Feed Status: UP   Listeners: 0
Listen in your browser - HTML5 player (in browser, HTML5)
Click here to listen with your own player (launches your MP3 player)
Archive Access: KMSO Gnd/Twr/App/ZLC/ZSE
FacilityFrequency
Emergency/Guard121.500
Great Falls Radio Miller Peak RCO122.450
Minuteman Jet Center Unicom122.950
Missoula Ground/Clearance Delivery121.900
Missoula International Airport Operations154.965
Missoula International Airport Operations155.820
Missoula Tower118.400
Northstar Unicom123.300
Salt Lake Center132.400
Salt Lake City Center133.400
Seattle Center (Mullan Pass RCAG)128.450
Spokane Approach/Departure124.900

ICAO: KSLC  IATA: SLC   Airport: Salt Lake City International Airport
City: Salt Lake City   State/Province: Utah
Country: United States   Continent: North America
KSLC METAR Weather: KSLC 241454Z 13007KT 10SM SCT095 BKN150 02/M01 A3011 RMK AO2 SLP197 ACSL DSNT N-SE T00171011 58002
KSLC Flight Activity (FlightAware)
KSLC Webcam:  
KSLC Airport Info   (iFlightPlanner)
KSLC VFR Sectional Chart   (iFlightPlanner) 
KSLC IFR Low Chart   (iFlightPlanner) 

ZLC Salt Lake Center (SLC) #1
Feed Status: UP   Listeners: 0
Listen in your browser - HTML5 player (in browser, HTML5)
Click here to listen with your own player (launches your MP3 player)
Archive Access: ZLC Salt Lake Center (SLC) #1
FacilityFrequency
ZLC Salt Lake Center (Sector 03 Low/High/Ultra-High)119.950
ZLC Salt Lake Center (Sector 04 Low/High/Ultra-High)135.775
ZLC Salt Lake Center (Sector 07 Low)127.700
ZLC Salt Lake Center (Sector 11 Low/High)127.825
ZLC Salt Lake Center (Sector 32 Low/High)133.900
ZLC Salt Lake Center (Sector 40 Low/High/Ultra-High)128.550
ZLC Salt Lake Center (Sector 41 High)121.150
ZLC Salt Lake Center (Sector 44 Low)125.575

ZLC Salt Lake Center (SLC) #2
Feed Status: UP   Listeners: 0
Listen in your browser - HTML5 player (in browser, HTML5)
Click here to listen with your own player (launches your MP3 player)
Archive Access: ZLC Salt Lake Center (SLC) #2
FacilityFrequency
ZLC Salt Lake Center (Sector 03 Low/High/Ultra-High)119.950
ZLC Salt Lake Center (Sector 04 Low/High/Ultra-High)135.775
ZLC Salt Lake Center (Sector 07 Low)127.700

NOTICE

Unauthorized use prohibited. See LiveATC.net Terms of Service


Airport/ARTCC Code
Frequency Search
(e.g., 124.400, 128.75)
Site-wide search
 


Browse Feeds
Top 50 Feeds
Coverage Map
Bad Weather Areas

LiveATC FAQ
Offer LiveATC feed
Contact LiveATC.net
Press Inquiries

LiveATC on iPhone
LiveATC on Android

Windows Phone
Windows 8/10

LiveATC Mobile
(Mobile browser)

ATC Audio Archives
Interesting Recordings

LiveATC Forums


Home Page
About LiveATC.net
Make a Donation
Terms of Use
Privacy Policy

Canadian Air Freqs

AIRMETs/SIGMETs

FAA Airport Status
Nat'l Airspace Status
Arrival Demand Charts


Server Software By:
Icecast.org
Liquidsoap